Orland, Indiana
Current Conditions -  °F | °C
As of 8:15 AM on Friday 19 Dec 2014 (Local Time) from KANQ Reporting Station
Overcast Overcast  
Wind Chill: 20°   Ceiling: 1600
Heat Index: 27°   Visibility: 6mi
Dew Point: 25°   Wind: 6mph
Humidity: 93%   Direction: 270°W
Pressure: 30.24"   Gusts: NA
Location:  41.73°N, 85.17°W
Report Text: KANQ 191315Z AUTO 27005KT 6SM OVC016 M03/M04 A3024 RMK
Loading
Personal Weather Stations






























Interactive Weather Map New forecast layout! Learn more

10-Day Weather Forecast

Advertisements
Track Severe Weather on mobile